Time;durP1;ratioP1;P1;durP2;ratioP2;P2;SDS_P1;SDS_P2;PMS_P1;PMS_P2;Temp;Humidity;BMP_temperature;BMP_pressure;BME280_temperature;BME280_humidity;BME280_pressure;Samples;Min_cycle;Max_cycle;Signal;HPM_P1;HPM_P2
2021/11/06 00:00:20;;;;;;;;;;;23.50;32.20;;;;;;500707;237;871;-81
2021/11/06 00:02:22;;;;;;;;;;;23.00;32.90;;;;;;500639;237;1056;-81
2021/11/06 00:04:23;;;;;;;;;;;22.60;33.50;;;;;;500824;237;903;-80
2021/11/06 00:06:24;;;;;;;;;;;22.90;33.20;;;;;;500713;237;1124;-81
2021/11/06 00:08:26;;;;;;;;;;;22.60;33.10;;;;;;500653;237;1129;-81
2021/11/06 00:10:27;;;;;;;;;;;22.30;33.70;;;;;;500677;237;1212;-81
2021/11/06 00:12:28;;;;;;;;;;;21.60;34.80;;;;;;500656;237;1014;-81
2021/11/06 00:14:30;;;;;;;;;;;21.50;35.20;;;;;;500726;237;2163;-81
2021/11/06 00:16:31;;;;;;;;;;;21.40;35.20;;;;;;500611;237;1214;-81
2021/11/06 00:18:32;;;;;;;;;;;21.80;34.90;;;;;;500660;237;1026;-81
2021/11/06 00:20:33;;;;;;;;;;;21.60;35.10;;;;;;500689;237;937;-81
2021/11/06 00:22:35;;;;;;;;;;;21.50;35.30;;;;;;500639;237;1109;-81
2021/11/06 00:24:36;;;;;;;;;;;21.60;35.10;;;;;;500670;237;943;-81
2021/11/06 00:26:37;;;;;;;;;;;21.80;35.10;;;;;;500604;237;1136;-81
2021/11/06 00:28:39;;;;;;;;;;;21.50;34.90;;;;;;500659;237;1003;-81
2021/11/06 00:30:40;;;;;;;;;;;21.70;34.90;;;;;;500601;237;876;-81
2021/11/06 00:32:41;;;;;;;;;;;21.50;35.10;;;;;;500594;237;1202;-81
2021/11/06 00:34:43;;;;;;;;;;;21.90;34.60;;;;;;500564;237;2160;-81
2021/11/06 00:36:44;;;;;;;;;;;21.60;34.90;;;;;;500575;237;1108;-81
2021/11/06 00:38:45;;;;;;;;;;;22.40;34.20;;;;;;500567;237;1159;-81
2021/11/06 00:40:47;;;;;;;;;;;22.30;34.00;;;;;;500570;237;1189;-81
2021/11/06 00:42:48;;;;;;;;;;;22.90;33.30;;;;;;500567;237;941;-81
2021/11/06 00:44:49;;;;;;;;;;;23.10;33.00;;;;;;500533;237;932;-81
2021/11/06 00:46:51;;;;;;;;;;;23.30;32.70;;;;;;500492;237;1012;-81
2021/11/06 00:48:52;;;;;;;;;;;23.50;32.20;;;;;;500572;237;895;-81
2021/11/06 00:50:53;;;;;;;;;;;23.70;31.90;;;;;;500427;237;1131;-81
2021/11/06 00:52:55;;;;;;;;;;;23.60;32.00;;;;;;500454;237;1130;-81
2021/11/06 00:54:56;;;;;;;;;;;23.70;31.90;;;;;;500678;237;2187;-81
2021/11/06 00:56:57;;;;;;;;;;;23.80;31.80;;;;;;500482;237;1120;-81
2021/11/06 00:58:59;;;;;;;;;;;23.90;31.70;;;;;;500606;237;928;-81
2021/11/06 01:01:00;;;;;;;;;;;23.90;31.60;;;;;;500536;236;1157;-81
2021/11/06 01:03:01;;;;;;;;;;;24.00;31.50;;;;;;500574;237;1073;-81
2021/11/06 01:05:03;;;;;;;;;;;24.00;31.60;;;;;;500618;237;1001;-81
2021/11/06 01:07:04;;;;;;;;;;;24.10;31.50;;;;;;500506;237;1201;-81
2021/11/06 01:09:05;;;;;;;;;;;24.00;31.40;;;;;;500556;237;1189;-81
2021/11/06 01:11:07;;;;;;;;;;;24.00;31.50;;;;;;500501;237;1194;-81
2021/11/06 01:13:08;;;;;;;;;;;24.00;31.50;;;;;;500642;237;921;-81
2021/11/06 01:15:10;;;;;;;;;;;24.10;31.40;;;;;;500552;237;2183;-81
2021/11/06 01:17:11;;;;;;;;;;;24.20;31.40;;;;;;500540;237;1169;-81
2021/11/06 01:19:12;;;;;;;;;;;24.00;31.40;;;;;;500570;237;1050;-81
2021/11/06 01:21:13;;;;;;;;;;;24.10;31.40;;;;;;500562;237;1173;-81
2021/11/06 01:23:15;;;;;;;;;;;24.20;31.30;;;;;;500576;237;1171;-81
2021/11/06 01:25:16;;;;;;;;;;;24.20;31.30;;;;;;500594;237;870;-81
2021/11/06 01:27:17;;;;;;;;;;;24.30;31.20;;;;;;500610;237;1074;-81
2021/11/06 01:29:19;;;;;;;;;;;24.20;31.30;;;;;;500615;237;958;-81
2021/11/06 01:31:20;;;;;;;;;;;24.00;31.50;;;;;;500427;235;1194;-81
2021/11/06 01:33:21;;;;;;;;;;;24.00;31.50;;;;;;500537;237;961;-81
2021/11/06 01:35:23;;;;;;;;;;;24.00;31.50;;;;;;500522;237;2164;-81
2021/11/06 01:37:24;;;;;;;;;;;24.00;31.60;;;;;;500572;237;1076;-81
2021/11/06 01:39:25;;;;;;;;;;;23.90;31.60;;;;;;500612;237;1141;-81
2021/11/06 01:41:27;;;;;;;;;;;23.50;32.20;;;;;;500653;237;1198;-81
2021/11/06 01:43:28;;;;;;;;;;;23.10;32.40;;;;;;500677;237;880;-81
2021/11/06 01:45:29;;;;;;;;;;;22.80;33.30;;;;;;500684;237;909;-81
2021/11/06 01:47:31;;;;;;;;;;;23.00;33.00;;;;;;500687;237;1118;-81
2021/11/06 01:49:32;;;;;;;;;;;22.70;33.40;;;;;;500639;237;942;-81
2021/11/06 01:51:33;;;;;;;;;;;22.80;32.90;;;;;;500686;237;1211;-81
2021/11/06 01:53:35;;;;;;;;;;;22.30;34.00;;;;;;499097;238;1241;-81
2021/11/06 01:55:36;;;;;;;;;;;22.00;34.40;;;;;;500654;237;2164;-80
2021/11/06 01:57:37;;;;;;;;;;;21.90;34.60;;;;;;500683;237;1078;-81
2021/11/06 01:59:39;;;;;;;;;;;22.00;34.50;;;;;;500670;237;911;-81
2021/11/06 02:01:40;;;;;;;;;;;22.40;34.00;;;;;;500629;237;1221;-81
2021/11/06 02:03:41;;;;;;;;;;;22.30;33.70;;;;;;500657;237;855;-81
2021/11/06 02:05:43;;;;;;;;;;;21.80;34.60;;;;;;500658;237;1216;-80
2021/11/06 02:07:44;;;;;;;;;;;22.10;34.50;;;;;;500546;237;1395;-81
2021/11/06 02:09:45;;;;;;;;;;;21.90;34.30;;;;;;500654;237;1145;-81
2021/11/06 02:11:47;;;;;;;;;;;22.10;34.30;;;;;;500606;237;1076;-81
2021/11/06 02:13:48;;;;;;;;;;;22.00;34.50;;;;;;500590;237;1170;-80
2021/11/06 02:15:49;;;;;;;;;;;22.70;33.60;;;;;;500554;237;2172;-81
2021/11/06 02:17:51;;;;;;;;;;;22.40;33.60;;;;;;500530;237;1106;-81
2021/11/06 02:19:52;;;;;;;;;;;22.40;33.80;;;;;;500599;237;876;-81
2021/11/06 02:21:53;;;;;;;;;;;22.90;33.20;;;;;;500498;237;1144;-81
2021/11/06 02:23:54;;;;;;;;;;;23.20;32.70;;;;;;500556;237;943;-81
2021/11/06 02:25:56;;;;;;;;;;;23.40;32.40;;;;;;500525;237;1113;-81
2021/11/06 02:27:58;;;;;;;;;;;23.60;32.20;;;;;;500573;237;1243;-81
2021/11/06 02:29:58;;;;;;;;;;;23.60;32.00;;;;;;500365;237;1131;-81
2021/11/06 02:32:00;;;;;;;;;;;23.40;32.30;;;;;;500563;237;1157;-81
2021/11/06 02:34:01;;;;;;;;;;;23.70;32.00;;;;;;500553;237;1174;-81
2021/11/06 02:36:02;;;;;;;;;;;23.80;31.80;;;;;;500552;237;2187;-81
2021/11/06 02:38:04;;;;;;;;;;;23.90;31.70;;;;;;500643;237;1069;-81
2021/11/06 02:40:05;;;;;;;;;;;23.90;31.70;;;;;;500685;237;1141;-81
2021/11/06 02:42:06;;;;;;;;;;;23.90;31.60;;;;;;500476;237;1114;-81
2021/11/06 02:44:08;;;;;;;;;;;24.00;31.60;;;;;;500562;237;909;-81
2021/11/06 02:46:09;;;;;;;;;;;23.90;31.60;;;;;;500528;237;1108;-81
2021/11/06 02:48:10;;;;;;;;;;;24.00;31.50;;;;;;500545;237;1091;-81
2021/11/06 02:50:12;;;;;;;;;;;24.00;31.50;;;;;;500606;237;1192;-81
2021/11/06 02:52:13;;;;;;;;;;;24.00;31.60;;;;;;500579;237;1203;-81
2021/11/06 02:54:15;;;;;;;;;;;24.00;31.50;;;;;;500575;237;920;-81
2021/11/06 02:56:16;;;;;;;;;;;24.10;31.40;;;;;;500460;237;2368;-81
2021/11/06 02:58:17;;;;;;;;;;;24.10;31.40;;;;;;500518;237;934;-81
2021/11/06 03:00:18;;;;;;;;;;;24.00;31.40;;;;;;500599;237;945;-81
2021/11/06 03:02:20;;;;;;;;;;;24.00;31.40;;;;;;500687;237;1087;-81
2021/11/06 03:04:21;;;;;;;;;;;24.00;31.40;;;;;;500647;237;1164;-81
2021/11/06 03:06:23;;;;;;;;;;;24.00;31.40;;;;;;500595;237;1198;-81
2021/11/06 03:08:24;;;;;;;;;;;24.00;31.40;;;;;;500622;237;1088;-81
2021/11/06 03:10:25;;;;;;;;;;;23.80;31.50;;;;;;500079;238;1419;-81
2021/11/06 03:12:26;;;;;;;;;;;23.90;31.60;;;;;;500553;237;1209;-81
2021/11/06 03:14:28;;;;;;;;;;;23.80;31.60;;;;;;500624;237;2179;-81
2021/11/06 03:16:29;;;;;;;;;;;23.20;32.10;;;;;;500599;237;1163;-81
2021/11/06 03:18:30;;;;;;;;;;;23.10;32.60;;;;;;500640;237;1055;-81
2021/11/06 03:20:32;;;;;;;;;;;23.00;32.80;;;;;;500620;237;1186;-81
2021/11/06 03:22:34;;;;;;;;;;;22.80;32.90;;;;;;500640;237;1071;-81
2021/11/06 03:24:35;;;;;;;;;;;22.80;33.10;;;;;;500673;237;1152;-81
2021/11/06 03:26:36;;;;;;;;;;;22.60;33.50;;;;;;500625;237;1224;-81
2021/11/06 03:28:38;;;;;;;;;;;22.20;34.00;;;;;;500665;237;1126;-81
2021/11/06 03:30:39;;;;;;;;;;;22.70;33.50;;;;;;500670;237;1243;-80
2021/11/06 03:32:40;;;;;;;;;;;22.10;33.70;;;;;;500647;237;1093;-81
2021/11/06 03:34:42;;;;;;;;;;;21.80;34.40;;;;;;500625;237;2171;-81
2021/11/06 03:36:43;;;;;;;;;;;21.90;34.30;;;;;;500666;237;1323;-81
2021/11/06 03:38:44;;;;;;;;;;;21.90;34.50;;;;;;500621;237;1117;-80
2021/11/06 03:40:45;;;;;;;;;;;22.40;33.80;;;;;;500632;237;1143;-80
2021/11/06 03:42:47;;;;;;;;;;;22.20;34.20;;;;;;500638;237;1103;-81
2021/11/06 03:44:48;;;;;;;;;;;22.10;34.10;;;;;;500701;237;892;-81
2021/11/06 03:46:50;;;;;;;;;;;22.20;34.00;;;;;;500592;237;1142;-81
2021/11/06 03:48:51;;;;;;;;;;;22.50;33.60;;;;;;500579;237;1047;-81
2021/11/06 03:50:52;;;;;;;;;;;22.00;34.10;;;;;;500570;237;1186;-81
2021/11/06 03:52:53;;;;;;;;;;;22.10;34.10;;;;;;500567;237;1056;-81
2021/11/06 03:54:55;;;;;;;;;;;22.60;33.50;;;;;;500579;237;2180;-81
2021/11/06 03:56:56;;;;;;;;;;;22.60;33.30;;;;;;500568;237;1081;-80
2021/11/06 03:58:58;;;;;;;;;;;22.90;33.00;;;;;;500615;237;1084;-81
2021/11/06 04:00:59;;;;;;;;;;;23.10;32.60;;;;;;500561;237;1206;-81
2021/11/06 04:03:01;;;;;;;;;;;23.20;32.50;;;;;;500622;237;1171;-80
2021/11/06 04:05:02;;;;;;;;;;;23.20;32.50;;;;;;500631;237;956;-81
2021/11/06 04:07:03;;;;;;;;;;;23.40;32.30;;;;;;500613;237;1247;-81
2021/11/06 04:09:05;;;;;;;;;;;23.50;32.10;;;;;;500592;237;1193;-81
2021/11/06 04:11:06;;;;;;;;;;;23.50;32.00;;;;;;500480;237;1176;-81
2021/11/06 04:13:07;;;;;;;;;;;23.60;31.80;;;;;;500659;237;1065;-81
2021/11/06 04:15:09;;;;;;;;;;;23.80;31.70;;;;;;500546;237;2172;-81
2021/11/06 04:17:10;;;;;;;;;;;23.90;31.50;;;;;;500626;237;1152;-81
2021/11/06 04:19:12;;;;;;;;;;;23.90;31.40;;;;;;500572;237;939;-80
2021/11/06 04:21:13;;;;;;;;;;;23.90;31.40;;;;;;500625;237;1358;-81
2021/11/06 04:23:14;;;;;;;;;;;23.90;31.30;;;;;;500581;237;1043;-81
2021/11/06 04:25:16;;;;;;;;;;;24.00;31.30;;;;;;500633;237;1231;-81
2021/11/06 04:27:17;;;;;;;;;;;24.00;31.40;;;;;;500622;237;1101;-81
2021/11/06 04:29:18;;;;;;;;;;;24.00;31.20;;;;;;500605;237;916;-81
2021/11/06 04:31:20;;;;;;;;;;;24.00;31.20;;;;;;500554;237;1172;-81
2021/11/06 04:33:21;;;;;;;;;;;23.90;31.30;;;;;;500530;237;1065;-81
2021/11/06 04:35:22;;;;;;;;;;;24.00;31.20;;;;;;500603;237;2172;-81
2021/11/06 04:37:24;;;;;;;;;;;24.00;31.20;;;;;;500675;237;1242;-81
2021/11/06 04:39:25;;;;;;;;;;;24.00;31.10;;;;;;500609;237;896;-81
2021/11/06 04:41:26;;;;;;;;;;;23.90;31.30;;;;;;500620;235;1147;-81
2021/11/06 04:43:28;;;;;;;;;;;23.90;31.30;;;;;;500661;237;932;-81
2021/11/06 04:45:30;;;;;;;;;;;23.90;31.30;;;;;;500652;237;1176;-81
2021/11/06 04:47:30;;;;;;;;;;;23.60;31.60;;;;;;500582;237;1340;-81
2021/11/06 04:49:32;;;;;;;;;;;23.70;31.50;;;;;;500676;237;916;-81
2021/11/06 04:51:33;;;;;;;;;;;23.60;31.50;;;;;;500717;237;1068;-80
2021/11/06 04:53:34;;;;;;;;;;;23.40;31.70;;;;;;500680;237;874;-81
2021/11/06 04:55:36;;;;;;;;;;;23.30;31.90;;;;;;500637;237;2180;-80
2021/11/06 04:57:37;;;;;;;;;;;23.40;31.80;;;;;;500578;237;1090;-81
2021/11/06 04:59:38;;;;;;;;;;;23.20;32.00;;;;;;500691;237;869;-81
2021/11/06 05:01:40;;;;;;;;;;;22.90;32.30;;;;;;500614;237;1182;-81
2021/11/06 05:03:41;;;;;;;;;;;23.00;32.50;;;;;;500662;237;932;-80
2021/11/06 05:05:42;;;;;;;;;;;22.80;32.30;;;;;;499060;238;1142;-80
2021/11/06 05:07:44;;;;;;;;;;;22.20;33.30;;;;;;500702;237;1048;-80
2021/11/06 05:09:45;;;;;;;;;;;22.50;33.10;;;;;;500624;237;1212;-80
2021/11/06 05:11:47;;;;;;;;;;;22.50;33.00;;;;;;500575;237;993;-80
2021/11/06 05:13:48;;;;;;;;;;;22.50;32.90;;;;;;500287;238;1152;-80
2021/11/06 05:15:49;;;;;;;;;;;22.30;33.20;;;;;;500435;238;2179;-80
2021/11/06 05:17:52;;;;;;;;;;;22.50;32.80;;;;;;500605;237;903;-81
2021/11/06 05:19:52;;;;;;;;;;;22.30;33.00;;;;;;500597;237;1516;-80
2021/11/06 05:21:53;;;;;;;;;;;22.00;33.50;;;;;;500545;237;1104;-81
2021/11/06 05:23:54;;;;;;;;;;;22.50;33.10;;;;;;498985;238;1127;-81
2021/11/06 05:25:56;;;;;;;;;;;22.30;32.80;;;;;;500666;237;1237;-81
2021/11/06 05:27:57;;;;;;;;;;;22.00;33.40;;;;;;500610;237;1051;-81
2021/11/06 05:29:59;;;;;;;;;;;22.20;33.20;;;;;;500643;237;931;-81
2021/11/06 05:32:00;;;;;;;;;;;22.60;32.90;;;;;;500459;237;1224;-80
2021/11/06 05:34:02;;;;;;;;;;;22.80;32.30;;;;;;500548;237;937;-80
2021/11/06 05:36:03;;;;;;;;;;;22.90;32.20;;;;;;500537;237;2172;-81
2021/11/06 05:38:04;;;;;;;;;;;23.20;31.80;;;;;;500542;237;1166;-81
2021/11/06 05:40:06;;;;;;;;;;;23.20;31.80;;;;;;500529;237;860;-81
2021/11/06 05:42:07;;;;;;;;;;;23.10;31.80;;;;;;500580;237;1151;-81
2021/11/06 05:44:08;;;;;;;;;;;23.20;31.60;;;;;;500630;237;901;-81
2021/11/06 05:46:09;;;;;;;;;;;23.30;31.50;;;;;;500470;235;1224;-81
2021/11/06 05:48:11;;;;;;;;;;;23.30;31.40;;;;;;500584;237;960;-81
2021/11/06 05:50:12;;;;;;;;;;;23.40;31.30;;;;;;500580;237;902;-81
2021/11/06 05:52:13;;;;;;;;;;;23.50;31.20;;;;;;500450;237;1223;-80
2021/11/06 05:54:15;;;;;;;;;;;23.60;31.10;;;;;;500523;237;913;-81
2021/11/06 05:56:16;;;;;;;;;;;23.50;31.10;;;;;;500512;237;2172;-80
2021/11/06 05:58:17;;;;;;;;;;;23.60;30.90;;;;;;500611;237;957;-81
2021/11/06 06:00:19;;;;;;;;;;;23.60;30.90;;;;;;500659;237;919;-81
2021/11/06 06:02:20;;;;;;;;;;;23.60;30.90;;;;;;500541;237;1082;-81
2021/11/06 06:04:21;;;;;;;;;;;23.70;30.90;;;;;;500646;237;969;-81
2021/11/06 06:06:23;;;;;;;;;;;23.70;30.70;;;;;;500526;234;1338;-81
2021/11/06 06:08:24;;;;;;;;;;;23.50;30.90;;;;;;500602;237;1343;-81
2021/11/06 06:10:26;;;;;;;;;;;23.50;31.10;;;;;;500603;237;951;-81
2021/11/06 06:12:27;;;;;;;;;;;23.60;30.90;;;;;;500530;237;1129;-81
2021/11/06 06:14:28;;;;;;;;;;;23.60;31.00;;;;;;500577;237;862;-81
2021/11/06 06:16:30;;;;;;;;;;;23.70;30.90;;;;;;500541;237;2172;-81
2021/11/06 06:18:31;;;;;;;;;;;23.70;30.80;;;;;;500585;237;909;-81
2021/11/06 06:20:32;;;;;;;;;;;23.80;30.60;;;;;;500590;237;929;-81
2021/11/06 06:22:34;;;;;;;;;;;23.80;30.60;;;;;;500587;237;1253;-81
2021/11/06 06:24:35;;;;;;;;;;;23.80;30.60;;;;;;500592;237;919;-81
2021/11/06 06:26:36;;;;;;;;;;;23.70;30.70;;;;;;500574;237;1291;-81
2021/11/06 06:28:38;;;;;;;;;;;23.70;30.60;;;;;;500701;237;947;-81
2021/11/06 06:30:39;;;;;;;;;;;23.30;31.00;;;;;;500617;237;1201;-81
2021/11/06 06:32:40;;;;;;;;;;;23.30;31.30;;;;;;500643;237;1047;-81
2021/11/06 06:34:42;;;;;;;;;;;23.20;31.30;;;;;;500654;237;879;-81
2021/11/06 06:36:43;;;;;;;;;;;23.10;31.50;;;;;;500697;237;2171;-81
2021/11/06 06:38:44;;;;;;;;;;;23.00;31.50;;;;;;500687;237;865;-81
2021/11/06 06:40:46;;;;;;;;;;;22.90;31.60;;;;;;500571;237;1122;-81
2021/11/06 06:42:47;;;;;;;;;;;22.80;31.70;;;;;;500636;237;1152;-81
2021/11/06 06:44:48;;;;;;;;;;;22.70;31.80;;;;;;500655;237;1041;-81
2021/11/06 06:46:50;;;;;;;;;;;22.60;32.00;;;;;;500602;237;1220;-81
2021/11/06 06:48:51;;;;;;;;;;;22.60;32.10;;;;;;500690;237;1089;-81
2021/11/06 06:50:53;;;;;;;;;;;22.80;31.80;;;;;;500653;237;1329;-81
2021/11/06 06:52:54;;;;;;;;;;;22.30;32.10;;;;;;500359;238;1333;-80
2021/11/06 06:54:55;;;;;;;;;;;21.90;32.70;;;;;;500689;237;855;-80
2021/11/06 06:56:56;;;;;;;;;;;21.80;32.80;;;;;;500584;237;2175;-81
2021/11/06 06:58:58;;;;;;;;;;;22.20;32.50;;;;;;500800;237;1264;-80
2021/11/06 07:00:59;;;;;;;;;;;22.40;32.30;;;;;;500729;237;1187;-81
2021/11/06 07:03:00;;;;;;;;;;;22.20;32.40;;;;;;500728;237;1071;-80
2021/11/06 07:05:02;;;;;;;;;;;22.10;32.50;;;;;;500725;237;1185;-81
2021/11/06 07:07:03;;;;;;;;;;;22.10;32.70;;;;;;500647;237;1313;-81
2021/11/06 07:09:05;;;;;;;;;;;21.90;32.90;;;;;;500719;237;937;-81
2021/11/06 07:11:06;;;;;;;;;;;21.80;33.10;;;;;;500555;237;1137;-80
2021/11/06 07:13:07;;;;;;;;;;;22.00;32.90;;;;;;500647;237;1159;-81
2021/11/06 07:15:08;;;;;;;;;;;22.60;32.10;;;;;;500670;237;938;-81
2021/11/06 07:17:10;;;;;;;;;;;22.30;32.20;;;;;;500253;238;2113;-81
2021/11/06 07:19:11;;;;;;;;;;;22.30;32.50;;;;;;500631;237;912;-81
2021/11/06 07:21:12;;;;;;;;;;;22.60;32.20;;;;;;500553;235;1178;-81
2021/11/06 07:23:14;;;;;;;;;;;23.10;31.60;;;;;;500564;237;906;-81
2021/11/06 07:25:15;;;;;;;;;;;23.20;31.30;;;;;;500636;237;936;-81
2021/11/06 07:27:16;;;;;;;;;;;23.20;31.30;;;;;;500585;237;1160;-81
2021/11/06 07:29:18;;;;;;;;;;;23.30;31.00;;;;;;500594;237;904;-81
2021/11/06 07:31:19;;;;;;;;;;;23.50;31.00;;;;;;500534;237;1185;-81
2021/11/06 07:33:20;;;;;;;;;;;23.50;30.80;;;;;;500597;237;921;-81
2021/11/06 07:35:22;;;;;;;;;;;23.70;30.70;;;;;;500589;237;1096;-81
2021/11/06 07:37:23;;;;;;;;;;;23.80;30.60;;;;;;500508;237;2176;-81
2021/11/06 07:39:26;;;;;;;;;;;23.80;30.50;;;;;;500528;237;1125;-81
2021/11/06 07:41:26;;;;;;;;;;;23.60;30.70;;;;;;500480;237;1479;-81
2021/11/06 07:43:28;;;;;;;;;;;23.80;30.70;;;;;;500583;237;1167;-81
2021/11/06 07:45:29;;;;;;;;;;;23.80;30.40;;;;;;500626;237;1168;-81
2021/11/06 07:47:30;;;;;;;;;;;23.80;30.40;;;;;;500531;237;1269;-81
2021/11/06 07:49:32;;;;;;;;;;;24.00;30.40;;;;;;500643;237;1066;-81
2021/11/06 07:51:33;;;;;;;;;;;24.00;30.30;;;;;;500590;237;1103;-81
2021/11/06 07:53:34;;;;;;;;;;;24.10;30.30;;;;;;500598;237;1063;-81
2021/11/06 07:55:36;;;;;;;;;;;24.10;30.20;;;;;;500604;237;1216;-81
2021/11/06 07:57:37;;;;;;;;;;;24.10;30.30;;;;;;500651;237;2108;-81
2021/11/06 07:59:38;;;;;;;;;;;24.20;30.30;;;;;;500577;237;1036;-81
2021/11/06 08:01:40;;;;;;;;;;;24.10;30.20;;;;;;500640;237;1228;-81
2021/11/06 08:03:41;;;;;;;;;;;24.20;30.20;;;;;;500637;237;903;-81
2021/11/06 08:05:42;;;;;;;;;;;24.00;30.40;;;;;;500634;237;909;-81
2021/11/06 08:07:44;;;;;;;;;;;24.10;30.40;;;;;;500539;237;1111;-80
2021/11/06 08:09:45;;;;;;;;;;;24.10;30.50;;;;;;500758;237;917;-81
2021/11/06 08:11:46;;;;;;;;;;;24.10;30.50;;;;;;500561;237;1234;-81
2021/11/06 08:13:48;;;;;;;;;;;24.10;30.50;;;;;;500601;237;1100;-81
2021/11/06 08:15:49;;;;;;;;;;;24.00;30.60;;;;;;500625;237;1070;-81
2021/11/06 08:17:51;;;;;;;;;;;23.80;30.80;;;;;;500584;237;2157;-81
2021/11/06 08:19:52;;;;;;;;;;;23.80;30.80;;;;;;500746;238;1426;-81
2021/11/06 08:21:53;;;;;;;;;;;23.50;31.10;;;;;;500663;237;1081;-81
2021/11/06 08:23:54;;;;;;;;;;;23.20;31.80;;;;;;500666;237;928;-81
2021/11/06 08:25:56;;;;;;;;;;;23.00;31.80;;;;;;500616;237;1041;-81
2021/11/06 08:27:57;;;;;;;;;;;23.40;31.70;;;;;;500598;237;1146;-81
2021/11/06 08:29:58;;;;;;;;;;;23.00;31.70;;;;;;500615;237;863;-81
2021/11/06 08:32:00;;;;;;;;;;;22.60;32.70;;;;;;500648;237;1047;-81
2021/11/06 08:34:01;;;;;;;;;;;22.50;32.80;;;;;;500693;237;963;-81
2021/11/06 08:36:02;;;;;;;;;;;22.40;33.00;;;;;;500614;237;910;-81
2021/11/06 08:38:04;;;;;;;;;;;22.40;33.10;;;;;;500565;237;2156;-81
2021/11/06 08:40:05;;;;;;;;;;;22.20;33.30;;;;;;498977;238;1029;-81
2021/11/06 08:42:06;;;;;;;;;;;22.10;33.50;;;;;;500619;237;873;-81
2021/11/06 08:44:08;;;;;;;;;;;22.10;33.50;;;;;;500673;237;1080;-81
2021/11/06 08:46:09;;;;;;;;;;;22.20;33.50;;;;;;500669;237;977;-81
2021/11/06 08:48:10;;;;;;;;;;;22.00;33.60;;;;;;500623;237;1135;-81
2021/11/06 08:50:11;;;;;;;;;;;22.20;33.50;;;;;;500605;237;1199;-81
2021/11/06 08:52:18;;;;;;;;;;;22.10;33.50;;;;;;500610;237;1209;-81
2021/11/06 08:54:14;;;;;;;;;;;22.50;33.20;;;;;;499634;238;1370;-81
2021/11/06 08:56:16;;;;;;;;;;;22.30;33.10;;;;;;500645;237;1187;-81
2021/11/06 08:58:17;;;;;;;;;;;21.90;33.90;;;;;;500560;237;2172;-81
2021/11/06 09:00:20;;;;;;;;;;;22.10;33.80;;;;;;500613;237;1061;-81
2021/11/06 09:02:20;;;;;;;;;;;22.30;33.50;;;;;;500420;238;1512;-80
2021/11/06 09:04:21;;;;;;;;;;;22.60;32.80;;;;;;500589;237;1112;-81
2021/11/06 09:06:23;;;;;;;;;;;22.90;32.60;;;;;;500485;237;1182;-80
2021/11/06 09:08:24;;;;;;;;;;;23.20;32.20;;;;;;500515;237;1409;-81
2021/11/06 09:10:25;;;;;;;;;;;23.30;32.00;;;;;;500516;237;1114;-81
2021/11/06 09:12:26;;;;;;;;;;;23.30;31.80;;;;;;500483;237;1135;-81
2021/11/06 09:14:28;;;;;;;;;;;23.50;31.80;;;;;;500582;237;877;-81
2021/11/06 09:16:29;;;;;;;;;;;23.70;31.60;;;;;;500514;237;1214;-81
2021/11/06 09:18:30;;;;;;;;;;;23.80;31.50;;;;;;500533;237;2167;-81
2021/11/06 09:20:33;;;;;;;;;;;23.90;31.30;;;;;;500555;237;926;-81
2021/11/06 09:22:33;;;;;;;;;;;24.00;31.20;;;;;;500520;237;1374;-80
2021/11/06 09:24:35;;;;;;;;;;;23.70;31.40;;;;;;500575;237;1079;-81
2021/11/06 09:26:36;;;;;;;;;;;23.90;31.30;;;;;;500433;237;1254;-80
2021/11/06 09:28:40;;;;;;;;;;;24.00;31.30;;;;;;500486;237;904;-80
2021/11/06 09:30:39;;;;;;;;;;;24.00;31.10;;;;;;500294;238;1351;-81
2021/11/06 09:32:41;;;;;;;;;;;24.10;31.10;;;;;;500413;237;1128;-81
2021/11/06 09:34:42;;;;;;;;;;;24.10;31.10;;;;;;500553;237;1074;-81
2021/11/06 09:36:43;;;;;;;;;;;24.10;31.00;;;;;;500499;237;2105;-81
2021/11/06 09:38:45;;;;;;;;;;;24.20;31.00;;;;;;500555;237;937;-81
2021/11/06 09:40:46;;;;;;;;;;;24.30;30.90;;;;;;500534;237;1116;-81
2021/11/06 09:42:47;;;;;;;;;;;24.20;30.90;;;;;;500522;237;1125;-81
2021/11/06 09:44:49;;;;;;;;;;;24.20;31.00;;;;;;500577;237;1063;-81
2021/11/06 09:46:50;;;;;;;;;;;24.30;30.90;;;;;;500501;237;1475;-81
2021/11/06 09:48:51;;;;;;;;;;;24.40;30.70;;;;;;500620;237;1095;-81
2021/11/06 09:50:53;;;;;;;;;;;24.30;30.80;;;;;;500528;237;1190;-82
2021/11/06 09:52:56;;;;;;;;;;;24.10;31.10;;;;;;500659;237;1233;-81
2021/11/06 09:54:55;;;;;;;;;;;24.00;31.30;;;;;;500460;238;1386;-82
2021/11/06 09:56:57;;;;;;;;;;;24.10;31.30;;;;;;500467;237;2163;-81
2021/11/06 09:59:00;;;;;;;;;;;24.10;31.30;;;;;;500586;237;1127;-81
2021/11/06 10:01:02;;;;;;;;;;;24.10;31.40;;;;;;499984;238;1194;-81
2021/11/06 10:03:03;;;;;;;;;;;23.90;31.50;;;;;;500663;237;1108;-81
2021/11/06 10:05:04;;;;;;;;;;;23.90;31.60;;;;;;500613;237;1176;-81
2021/11/06 10:07:06;;;;;;;;;;;23.70;31.80;;;;;;500638;237;1042;-81
2021/11/06 10:09:07;;;;;;;;;;;23.60;32.00;;;;;;500697;237;962;-81
2021/11/06 10:11:09;;;;;;;;;;;23.40;32.20;;;;;;498989;238;1188;-81
2021/11/06 10:13:10;;;;;;;;;;;23.30;32.60;;;;;;500755;237;1313;-81
2021/11/06 10:15:12;;;;;;;;;;;23.10;32.80;;;;;;500723;237;999;-81
2021/11/06 10:17:13;;;;;;;;;;;23.10;32.80;;;;;;500604;237;2179;-81
2021/11/06 10:19:14;;;;;;;;;;;22.70;33.30;;;;;;500727;237;923;-81
2021/11/06 10:21:16;;;;;;;;;;;22.60;33.50;;;;;;500620;235;1172;-81
2021/11/06 10:23:17;;;;;;;;;;;22.50;33.50;;;;;;500640;237;862;-81
2021/11/06 10:25:19;;;;;;;;;;;22.50;33.60;;;;;;500622;237;867;-81
2021/11/06 10:27:20;;;;;;;;;;;22.30;33.90;;;;;;500528;238;1442;-81
2021/11/06 10:29:21;;;;;;;;;;;22.30;34.00;;;;;;500596;237;862;-82
2021/11/06 10:31:23;;;;;;;;;;;22.40;33.90;;;;;;500628;237;1201;-81
2021/11/06 10:33:25;;;;;;;;;;;22.30;34.10;;;;;;500633;237;889;-81
2021/11/06 10:35:25;;;;;;;;;;;22.30;34.20;;;;;;500477;238;1372;-81
2021/11/06 10:37:26;;;;;;;;;;;22.30;34.20;;;;;;500534;237;2176;-81
2021/11/06 10:39:28;;;;;;;;;;;22.20;34.20;;;;;;500521;237;927;-81
2021/11/06 10:41:29;;;;;;;;;;;22.10;34.40;;;;;;500405;237;1203;-81
2021/11/06 10:43:31;;;;;;;;;;;22.30;34.10;;;;;;498807;238;1274;-81
2021/11/06 10:45:32;;;;;;;;;;;22.80;33.40;;;;;;500458;237;1388;-81
2021/11/06 10:47:33;;;;;;;;;;;22.40;33.60;;;;;;500477;237;1073;-81
2021/11/06 10:49:34;;;;;;;;;;;22.80;33.50;;;;;;500596;237;922;-81
2021/11/06 10:51:36;;;;;;;;;;;23.00;33.10;;;;;;500392;237;1177;-81
2021/11/06 10:53:37;;;;;;;;;;;23.20;32.80;;;;;;500503;237;878;-81
2021/11/06 10:55:38;;;;;;;;;;;23.40;32.40;;;;;;500471;237;1210;-81
2021/11/06 10:57:40;;;;;;;;;;;23.50;32.30;;;;;;500472;237;2184;-81
2021/11/06 10:59:41;;;;;;;;;;;23.50;32.40;;;;;;500499;237;1012;-81
2021/11/06 11:01:42;;;;;;;;;;;23.70;32.10;;;;;;500296;237;1189;-81
2021/11/06 11:03:44;;;;;;;;;;;23.80;31.90;;;;;;500426;237;912;-81
2021/11/06 11:05:45;;;;;;;;;;;23.90;31.80;;;;;;500414;237;1194;-81
2021/11/06 11:07:46;;;;;;;;;;;23.90;31.70;;;;;;500417;237;1035;-81
2021/11/06 11:09:48;;;;;;;;;;;23.90;31.70;;;;;;500458;237;952;-81
2021/11/06 11:11:49;;;;;;;;;;;24.10;31.70;;;;;;500378;237;1244;-82
2021/11/06 11:13:50;;;;;;;;;;;24.20;31.50;;;;;;500528;237;1238;-81
2021/11/06 11:15:52;;;;;;;;;;;24.30;31.30;;;;;;500399;237;1198;-81
2021/11/06 11:17:55;;;;;;;;;;;24.20;31.30;;;;;;500410;237;2172;-82
2021/11/06 11:19:54;;;;;;;;;;;24.30;31.20;;;;;;500346;238;1441;-82
2021/11/06 11:21:56;;;;;;;;;;;24.30;31.20;;;;;;500296;237;1200;-81
2021/11/06 11:23:57;;;;;;;;;;;24.30;31.20;;;;;;500454;237;930;-81
2021/11/06 11:25:58;;;;;;;;;;;24.40;31.20;;;;;;500441;237;1077;-82
2021/11/06 11:28:00;;;;;;;;;;;24.40;31.00;;;;;;500449;237;1153;-81
2021/11/06 11:30:01;;;;;;;;;;;24.40;31.00;;;;;;500377;237;912;-81
2021/11/06 11:32:02;;;;;;;;;;;24.30;31.00;;;;;;500449;237;1111;-81
2021/11/06 11:34:08;;;;;;;;;;;24.40;31.00;;;;;;500550;237;1025;-81
2021/11/06 11:36:05;;;;;;;;;;;24.50;30.90;;;;;;500311;238;1437;-81
2021/11/06 11:38:06;;;;;;;;;;;24.40;30.80;;;;;;500493;237;2176;-82
2021/11/06 11:40:08;;;;;;;;;;;24.30;30.80;;;;;;500553;237;870;-82
2021/11/06 11:42:09;;;;;;;;;;;24.30;31.00;;;;;;500407;237;1153;-81
2021/11/06 11:44:10;;;;;;;;;;;24.40;30.80;;;;;;500482;237;936;-81
2021/11/06 11:46:12;;;;;;;;;;;24.30;30.90;;;;;;500436;237;1208;-81
2021/11/06 11:48:13;;;;;;;;;;;24.10;31.00;;;;;;500540;237;876;-81
2021/11/06 11:50:14;;;;;;;;;;;24.20;31.10;;;;;;500544;237;855;-81
2021/11/06 11:52:16;;;;;;;;;;;24.00;31.20;;;;;;500595;237;1166;-81
2021/11/06 11:54:17;;;;;;;;;;;23.60;31.50;;;;;;500702;237;1102;-81
2021/11/06 11:56:19;;;;;;;;;;;23.00;32.60;;;;;;500567;235;1182;-81
2021/11/06 11:58:21;;;;;;;;;;;23.00;32.50;;;;;;500611;237;2164;-80